Beaumont, Kansas
Current Conditions -  °F | °C
As of 5:35 PM on Monday 20 Oct 2014 (Local Time) from KEQA Reporting Station
Clear Clear  
Wind Chill: 79°   Ceiling: Unl
Heat Index: 79°   Visibility: 10mi
Dew Point: 45°   Wind: 5mph
Humidity: 30%   Direction: 60°ENE
Pressure: 30.03"   Gusts: NA
Location:  37.66°N, 96.53°W
Report Text: KEQA 202235Z AUTO 06004KT 10SM CLR 26/07 A3003 RMK AO2
Loading
Personal Weather Stations






























Interactive Weather Map
Tropical Storm Tracking
New forecast layout! Learn more

10-Day Weather Forecast

Advertisements
Track Severe Weather on mobile